Harleysville, Pennsylvania
Current Conditions -  °F | °C
As of 11:54 PM on Friday 28 Nov 2014 (Local Time) from KPTW Reporting Station
Few Clouds Few Clouds  
Wind Chill: 24°   Ceiling: Unl
Heat Index: 24°   Visibility: 10mi
Dew Point: 18°   Wind: 0mph
Humidity: 77%   Direction: NA
Pressure: 30.28"   Gusts: NA
Location:  40.28°N, 75.39°W
Report Text: KPTW 290454Z AUTO 00000KT 10SM FEW120 M04/M08 A3028 RMK AO2 SLP255 T10441078 400171061
Loading
Personal Weather Stations






























Interactive Weather Map New forecast layout! Learn more

10-Day Weather Forecast

Advertisements
Track Severe Weather on mobile